Time;durP1;ratioP1;P1;durP2;ratioP2;P2;SDS_P1;SDS_P2;PMS_P1;PMS_P2;Temp;Humidity;BMP_temperature;BMP_pressure;BME280_temperature;BME280_humidity;BME280_pressure;Samples;Min_cycle;Max_cycle;Signal;HPM_P1;HPM_P2
2021/01/24 00:00:19;;;;;;;;;;;3.60;99.90;;;;;;5034635;28;19909;-81
2021/01/24 00:02:44;;;;;;;;;;;3.60;99.90;;;;;;5052975;28;19912;-80
2021/01/24 00:05:10;;;;;;;;;;;3.50;99.90;;;;;;5053036;28;19911;-80
2021/01/24 00:07:35;;;;;;;;;;;3.50;99.90;;;;;;5052733;28;19905;-81
2021/01/24 00:10:01;;;;;;;;;;;3.50;99.90;;;;;;5052489;28;19908;-80
2021/01/24 00:12:26;;;;;;;;;;;3.50;99.90;;;;;;5052513;28;19916;-81
2021/01/24 00:14:52;;;;;;;;;;;3.40;99.90;;;;;;5052299;28;19909;-73
2021/01/24 00:17:17;;;;;;;;;;;3.40;99.90;;;;;;5056261;28;19911;-73
2021/01/24 00:19:43;;;;;;;;;;;3.40;99.90;;;;;;5056548;28;20007;-81
2021/01/24 00:22:08;;;;;;;;;;;3.40;99.90;;;;;;5056704;28;19915;-73
2021/01/24 00:24:34;;;;;;;;;;;3.40;99.90;;;;;;5056616;28;19905;-73
2021/01/24 00:26:59;;;;;;;;;;;3.40;99.90;;;;;;5056895;28;20329;-79
2021/01/24 00:29:25;;;;;;;;;;;3.30;99.90;;;;;;5056546;28;19904;-73
2021/01/24 00:31:51;;;;;;;;;;;3.30;99.90;;;;;;5056437;28;19909;-73
2021/01/24 00:34:16;;;;;;;;;;;3.40;99.90;;;;;;5056668;28;19944;-73
2021/01/24 00:36:42;;;;;;;;;;;3.30;99.90;;;;;;5038706;28;20268;-81
2021/01/24 00:39:07;;;;;;;;;;;3.30;99.90;;;;;;5038153;28;20003;-80
2021/01/24 00:41:33;;;;;;;;;;;3.30;99.90;;;;;;5056567;28;20069;-72
2021/01/24 00:43:58;;;;;;;;;;;3.20;99.90;;;;;;5056309;28;20347;-73
2021/01/24 00:46:24;;;;;;;;;;;3.30;99.90;;;;;;5056007;28;19904;-72
2021/01/24 00:48:49;;;;;;;;;;;3.20;99.90;;;;;;5056087;28;19908;-73
2021/01/24 00:51:15;;;;;;;;;;;3.20;99.90;;;;;;5054667;28;19909;-81
2021/01/24 00:53:40;;;;;;;;;;;3.20;99.90;;;;;;5056227;28;19905;-81
2021/01/24 00:56:06;;;;;;;;;;;3.20;99.90;;;;;;5038957;28;19909;-80
2021/01/24 00:58:31;;;;;;;;;;;3.20;99.90;;;;;;5038457;28;19909;-73
2021/01/24 01:00:57;;;;;;;;;;;3.20;99.90;;;;;;5054764;28;19956;-72
2021/01/24 01:03:22;;;;;;;;;;;3.10;99.90;;;;;;5056052;28;19995;-80
2021/01/24 01:05:48;;;;;;;;;;;3.10;99.90;;;;;;5056050;28;19911;-80
2021/01/24 01:08:14;;;;;;;;;;;3.10;99.90;;;;;;5055902;28;19905;-80
2021/01/24 01:10:39;;;;;;;;;;;3.10;99.90;;;;;;5075718;28;19904;-81
2021/01/24 01:13:05;;;;;;;;;;;3.10;99.90;;;;;;5070709;28;19904;-80
2021/01/24 01:15:31;;;;;;;;;;;3.00;99.90;;;;;;5035533;28;19988;-80
2021/01/24 01:17:58;;;;;;;;;;;3.00;99.90;;;;;;5035572;28;20392;-73
2021/01/24 01:20:24;;;;;;;;;;;2.90;99.90;;;;;;5047916;28;19908;-80
2021/01/24 01:22:50;;;;;;;;;;;2.90;99.90;;;;;;5055642;28;19909;-72
2021/01/24 01:25:15;;;;;;;;;;;2.90;99.90;;;;;;5055555;28;19912;-72
2021/01/24 01:27:41;;;;;;;;;;;2.80;99.90;;;;;;5055277;28;19909;-81
2021/01/24 01:30:07;;;;;;;;;;;2.80;99.90;;;;;;5055287;28;19904;-72
2021/01/24 01:32:33;;;;;;;;;;;2.70;99.90;;;;;;5037546;28;19905;-80
2021/01/24 01:34:59;;;;;;;;;;;2.70;99.90;;;;;;5055680;28;19912;-72
2021/01/24 01:37:24;;;;;;;;;;;2.70;99.90;;;;;;5055348;28;19905;-72
2021/01/24 01:39:50;;;;;;;;;;;2.70;99.90;;;;;;5054119;28;19909;-72
2021/01/24 01:42:15;;;;;;;;;;;2.70;99.90;;;;;;5055434;28;19908;-72
2021/01/24 01:44:41;;;;;;;;;;;2.70;99.90;;;;;;5055091;28;19908;-73
2021/01/24 01:47:07;;;;;;;;;;;2.70;99.90;;;;;;5055213;28;19912;-73
2021/01/24 01:49:33;;;;;;;;;;;2.70;99.90;;;;;;5054115;28;20375;-80
2021/01/24 01:51:58;;;;;;;;;;;2.70;99.90;;;;;;5054326;28;19912;-72
2021/01/24 01:54:24;;;;;;;;;;;2.70;99.90;;;;;;5056050;28;19963;-73
2021/01/24 01:56:50;;;;;;;;;;;2.70;99.90;;;;;;5054943;28;19905;-80
2021/01/24 01:59:15;;;;;;;;;;;2.70;99.90;;;;;;5054586;28;20315;-80
2021/01/24 02:01:57;;;;;;;;;;;2.70;99.90;;;;;;5054516;28;20011;-80
2021/01/24 02:04:32;;;;;;;;;;;2.70;99.90;;;;;;5054997;28;19951;-73
2021/01/24 02:07:29;;;;;;;;;;;2.70;99.90;;;;;;5054952;28;19905;-80
2021/01/24 02:09:58;;;;;;;;;;;2.60;99.90;;;;;;5031751;28;20343;-79
2021/01/24 02:12:29;;;;;;;;;;;2.60;99.90;;;;;;5054272;28;19904;-80
2021/01/24 02:15:02;;;;;;;;;;;2.60;99.90;;;;;;5053152;28;19998;-80
2021/01/24 02:17:29;;;;;;;;;;;2.50;99.90;;;;;;5054240;28;20007;-73
2021/01/24 02:19:55;;;;;;;;;;;2.50;99.90;;;;;;5054807;28;19909;-80
2021/01/24 02:22:22;;;;;;;;;;;2.50;99.90;;;;;;5054201;28;19913;-80
2021/01/24 02:24:49;;;;;;;;;;;2.50;99.90;;;;;;5034450;28;19905;-72
2021/01/24 02:27:20;;;;;;;;;;;2.40;99.90;;;;;;5034694;28;19940;-80
2021/01/24 02:30:04;;;;;;;;;;;2.30;99.90;;;;;;5034356;28;19953;-72
2021/01/24 02:32:31;;;;;;;;;;;2.20;99.90;;;;;;5034446;28;19904;-72
2021/01/24 02:34:57;;;;;;;;;;;2.30;99.90;;;;;;5034203;28;19955;-81
2021/01/24 02:37:24;;;;;;;;;;;2.30;99.90;;;;;;5038620;28;19911;-81
2021/01/24 02:39:49;;;;;;;;;;;2.20;99.90;;;;;;5052751;28;19971;-80
2021/01/24 02:42:16;;;;;;;;;;;2.20;99.90;;;;;;5054192;28;19945;-80
2021/01/24 02:44:42;;;;;;;;;;;2.20;99.90;;;;;;5054033;28;19905;-80
2021/01/24 02:47:08;;;;;;;;;;;2.20;99.90;;;;;;5053954;28;20296;-80
2021/01/24 02:49:35;;;;;;;;;;;2.10;99.90;;;;;;5053063;28;19904;-80
2021/01/24 02:52:01;;;;;;;;;;;2.10;99.90;;;;;;5053586;28;19905;-73
2021/01/24 02:54:27;;;;;;;;;;;2.10;99.90;;;;;;5054523;28;20372;-72
2021/01/24 02:56:53;;;;;;;;;;;2.10;99.90;;;;;;5053900;28;20291;-81
2021/01/24 02:59:19;;;;;;;;;;;2.10;99.90;;;;;;5054038;28;19911;-80
2021/01/24 03:01:45;;;;;;;;;;;2.10;99.90;;;;;;5053293;28;19971;-80
2021/01/24 03:04:10;;;;;;;;;;;2.10;99.90;;;;;;5053776;28;19944;-80
2021/01/24 03:06:36;;;;;;;;;;;2.10;99.90;;;;;;5035550;28;19904;-80
2021/01/24 03:09:02;;;;;;;;;;;2.10;99.90;;;;;;5053102;28;20389;-72
2021/01/24 03:11:28;;;;;;;;;;;2.20;99.90;;;;;;5053389;28;19904;-73
2021/01/24 03:13:54;;;;;;;;;;;2.10;99.90;;;;;;5053170;28;20368;-72
2021/01/24 03:16:20;;;;;;;;;;;2.10;99.90;;;;;;5052886;28;19915;-72
2021/01/24 03:18:46;;;;;;;;;;;2.10;99.90;;;;;;5052687;28;19924;-73
2021/01/24 03:21:13;;;;;;;;;;;2.10;99.90;;;;;;5053207;28;19976;-80
2021/01/24 03:23:39;;;;;;;;;;;2.10;99.90;;;;;;5036171;28;20349;-72
2021/01/24 03:26:06;;;;;;;;;;;2.00;99.90;;;;;;5053436;28;19909;-72
2021/01/24 03:28:31;;;;;;;;;;;2.00;99.90;;;;;;5053458;28;19909;-80
2021/01/24 03:30:57;;;;;;;;;;;1.90;99.90;;;;;;5052542;28;20058;-80
2021/01/24 03:33:23;;;;;;;;;;;1.80;99.90;;;;;;5053161;28;19912;-80
2021/01/24 03:35:48;;;;;;;;;;;1.80;99.90;;;;;;5053451;28;19911;-72
2021/01/24 03:38:14;;;;;;;;;;;1.80;99.90;;;;;;5052717;28;19909;-72
2021/01/24 03:40:39;;;;;;;;;;;1.70;99.90;;;;;;5051790;28;19936;-80
2021/01/24 03:43:05;;;;;;;;;;;1.70;99.90;;;;;;5053163;28;19951;-81
2021/01/24 03:45:31;;;;;;;;;;;1.70;99.90;;;;;;5052889;28;19908;-72
2021/01/24 03:47:56;;;;;;;;;;;1.60;99.90;;;;;;5053128;28;19963;-80
2021/01/24 03:50:22;;;;;;;;;;;1.60;99.90;;;;;;5051842;28;19951;-80
2021/01/24 03:52:47;;;;;;;;;;;1.60;99.90;;;;;;5052556;28;19904;-72
2021/01/24 03:55:13;;;;;;;;;;;1.60;99.90;;;;;;5051314;28;19905;-80
2021/01/24 03:57:38;;;;;;;;;;;1.60;99.90;;;;;;5052966;28;19954;-72
2021/01/24 04:00:05;;;;;;;;;;;1.60;99.90;;;;;;5052909;28;19908;-73
2021/01/24 04:02:31;;;;;;;;;;;1.60;99.90;;;;;;5052601;28;19909;-72
2021/01/24 04:04:57;;;;;;;;;;;1.60;99.90;;;;;;5053055;28;20390;-80
2021/01/24 04:07:22;;;;;;;;;;;1.50;99.90;;;;;;5052819;28;19908;-72
2021/01/24 04:09:48;;;;;;;;;;;1.40;99.90;;;;;;5052673;28;19911;-73
2021/01/24 04:12:13;;;;;;;;;;;1.30;99.90;;;;;;5051495;28;19912;-80
2021/01/24 04:14:39;;;;;;;;;;;1.30;99.90;;;;;;5052387;28;19958;-76
2021/01/24 04:17:04;;;;;;;;;;;1.30;99.90;;;;;;5052421;28;20443;-72
2021/01/24 04:19:30;;;;;;;;;;;1.30;99.90;;;;;;5052622;28;19923;-72
2021/01/24 04:21:56;;;;;;;;;;;1.20;99.90;;;;;;5034645;28;19909;-80
2021/01/24 04:24:23;;;;;;;;;;;1.30;99.90;;;;;;5052308;28;19908;-80
2021/01/24 04:26:49;;;;;;;;;;;1.20;99.90;;;;;;5052777;28;19948;-72
2021/01/24 04:29:14;;;;;;;;;;;1.30;99.90;;;;;;5052828;28;20019;-73
2021/01/24 04:31:40;;;;;;;;;;;1.40;99.90;;;;;;5051875;28;20411;-72
2021/01/24 04:34:05;;;;;;;;;;;1.40;99.90;;;;;;5052591;28;19904;-72
2021/01/24 04:36:31;;;;;;;;;;;1.40;99.90;;;;;;5052521;28;20003;-72
2021/01/24 04:38:56;;;;;;;;;;;1.40;99.90;;;;;;5051691;28;19909;-72
2021/01/24 04:41:22;;;;;;;;;;;1.40;99.90;;;;;;5052579;28;20394;-80
2021/01/24 04:43:48;;;;;;;;;;;1.40;99.90;;;;;;5034733;28;20486;-72
2021/01/24 04:46:13;;;;;;;;;;;1.40;99.90;;;;;;5052345;28;19952;-80
2021/01/24 04:48:39;;;;;;;;;;;1.40;99.90;;;;;;5052431;28;19905;-73
2021/01/24 04:51:05;;;;;;;;;;;1.40;99.90;;;;;;5051231;28;19909;-72
2021/01/24 04:53:31;;;;;;;;;;;1.40;99.90;;;;;;5052057;28;19951;-79
2021/01/24 04:55:57;;;;;;;;;;;1.40;99.90;;;;;;5050728;28;20363;-80
2021/01/24 04:58:23;;;;;;;;;;;1.40;99.90;;;;;;5052376;28;19955;-80
2021/01/24 05:00:48;;;;;;;;;;;1.40;99.90;;;;;;5052323;28;19908;-72
2021/01/24 05:03:14;;;;;;;;;;;1.40;99.90;;;;;;5055621;28;19904;-72
2021/01/24 05:05:39;;;;;;;;;;;1.40;99.90;;;;;;5056156;28;19905;-80
2021/01/24 05:08:06;;;;;;;;;;;1.50;99.90;;;;;;5075594;28;19905;-80
2021/01/24 05:10:32;;;;;;;;;;;1.60;99.90;;;;;;5075953;28;19912;-73
2021/01/24 05:12:57;;;;;;;;;;;1.60;99.90;;;;;;5054674;28;19904;-80
2021/01/24 05:15:24;;;;;;;;;;;1.70;99.90;;;;;;5071019;28;20291;-73
2021/01/24 05:17:50;;;;;;;;;;;1.70;99.90;;;;;;5055583;28;19920;-80
2021/01/24 05:20:17;;;;;;;;;;;1.80;99.90;;;;;;5055704;28;19905;-79
2021/01/24 05:22:42;;;;;;;;;;;1.80;99.90;;;;;;5055506;28;20375;-72
2021/01/24 05:25:08;;;;;;;;;;;1.80;99.90;;;;;;5055499;28;19972;-80
2021/01/24 05:27:34;;;;;;;;;;;1.90;99.90;;;;;;5055457;28;19905;-73
2021/01/24 05:29:59;;;;;;;;;;;1.90;99.90;;;;;;5055673;28;19908;-72
2021/01/24 05:32:25;;;;;;;;;;;1.80;99.90;;;;;;5055585;28;20360;-72
2021/01/24 05:34:51;;;;;;;;;;;1.80;99.90;;;;;;5055513;28;20356;-80
2021/01/24 05:37:17;;;;;;;;;;;1.80;99.90;;;;;;5055030;28;19905;-80
2021/01/24 05:39:42;;;;;;;;;;;1.80;99.90;;;;;;5055173;28;19916;-72
2021/01/24 05:42:10;;;;;;;;;;;1.80;99.90;;;;;;5055467;28;20367;-80
2021/01/24 05:44:36;;;;;;;;;;;1.90;99.90;;;;;;5055268;28;19905;-72
2021/01/24 05:47:03;;;;;;;;;;;2.00;99.90;;;;;;5054903;28;20011;-72
2021/01/24 05:49:29;;;;;;;;;;;2.00;99.90;;;;;;5054165;28;19958;-73
2021/01/24 05:52:00;;;;;;;;;;;1.90;99.90;;;;;;5054902;28;19911;-79
2021/01/24 05:54:45;;;;;;;;;;;2.00;99.90;;;;;;5057542;28;19955;-72
2021/01/24 05:57:11;;;;;;;;;;;2.00;99.90;;;;;;5054741;28;20098;-73
2021/01/24 05:59:47;;;;;;;;;;;2.00;99.90;;;;;;5055117;28;20399;-79
2021/01/24 06:02:13;;;;;;;;;;;2.10;99.90;;;;;;5054776;28;20388;-80
2021/01/24 06:04:39;;;;;;;;;;;2.10;99.90;;;;;;5054947;28;19991;-80
2021/01/24 06:07:05;;;;;;;;;;;2.20;99.90;;;;;;5036638;28;20524;-72
2021/01/24 06:09:30;;;;;;;;;;;2.10;99.90;;;;;;5054700;28;19905;-72
2021/01/24 06:11:56;;;;;;;;;;;2.10;99.90;;;;;;5054648;28;19905;-72
2021/01/24 06:14:22;;;;;;;;;;;2.20;99.90;;;;;;5053171;28;19913;-72
2021/01/24 06:16:49;;;;;;;;;;;2.10;99.90;;;;;;5053976;28;20260;-80
2021/01/24 06:19:18;;;;;;;;;;;2.10;99.90;;;;;;5054706;28;19921;-72
2021/01/24 06:21:52;;;;;;;;;;;2.10;99.90;;;;;;5054504;28;19912;-72
2021/01/24 06:24:21;;;;;;;;;;;2.10;99.90;;;;;;5054406;28;20256;-72
2021/01/24 06:26:49;;;;;;;;;;;2.10;99.90;;;;;;5054639;28;19904;-72
2021/01/24 06:29:15;;;;;;;;;;;2.00;99.90;;;;;;5054488;28;19911;-79
2021/01/24 06:31:47;;;;;;;;;;;2.00;99.90;;;;;;5054274;28;19911;-79
2021/01/24 06:34:13;;;;;;;;;;;2.00;99.90;;;;;;5054404;28;19911;-72
2021/01/24 06:36:58;;;;;;;;;;;2.00;99.90;;;;;;5067296;28;19908;-73
2021/01/24 06:39:50;;;;;;;;;;;2.00;99.90;;;;;;5040149;28;19959;-72
2021/01/24 06:42:34;;;;;;;;;;;1.90;99.90;;;;;;5051138;28;19912;-79
2021/01/24 06:45:00;;;;;;;;;;;1.90;99.90;;;;;;5053630;28;20026;-72
2021/01/24 06:47:36;;;;;;;;;;;1.90;99.90;;;;;;5054125;28;20401;-79
2021/01/24 06:50:02;;;;;;;;;;;1.90;99.90;;;;;;5053147;28;20062;-80
2021/01/24 06:52:27;;;;;;;;;;;1.90;99.90;;;;;;5053882;28;19995;-72
2021/01/24 06:54:53;;;;;;;;;;;1.90;99.90;;;;;;5053601;28;19909;-80
2021/01/24 06:57:18;;;;;;;;;;;1.90;99.90;;;;;;5052456;28;19905;-80
2021/01/24 06:59:44;;;;;;;;;;;1.90;99.90;;;;;;5053826;28;19913;-74
2021/01/24 07:02:22;;;;;;;;;;;1.90;99.90;;;;;;5053886;28;19909;-74
2021/01/24 07:05:07;;;;;;;;;;;1.90;99.90;;;;;;5054205;28;19954;-75
2021/01/24 07:07:33;;;;;;;;;;;2.00;99.90;;;;;;5053654;28;19915;-82
2021/01/24 07:09:59;;;;;;;;;;;2.00;99.90;;;;;;5053576;28;19911;-82
2021/01/24 07:12:35;;;;;;;;;;;2.10;99.90;;;;;;5053354;28;19904;-75
2021/01/24 07:15:01;;;;;;;;;;;2.10;99.90;;;;;;5034985;28;20415;-81
2021/01/24 07:17:26;;;;;;;;;;;2.20;99.90;;;;;;5033218;28;19909;-75
2021/01/24 07:19:53;;;;;;;;;;;2.20;99.90;;;;;;5058289;28;19912;-83
2021/01/24 07:22:20;;;;;;;;;;;2.20;99.90;;;;;;5053255;28;19909;-82
2021/01/24 07:24:46;;;;;;;;;;;2.20;99.90;;;;;;5053123;28;19954;-74
2021/01/24 07:27:12;;;;;;;;;;;2.10;99.90;;;;;;5053380;28;19904;-75
2021/01/24 07:29:38;;;;;;;;;;;2.10;99.90;;;;;;5053377;28;20334;-75
2021/01/24 07:32:04;;;;;;;;;;;2.10;99.90;;;;;;5052988;28;19909;-75
2021/01/24 07:34:30;;;;;;;;;;;2.10;99.90;;;;;;5053308;28;19943;-82
2021/01/24 07:36:55;;;;;;;;;;;2.10;99.90;;;;;;5052908;28;19928;-82
2021/01/24 07:39:21;;;;;;;;;;;2.10;99.90;;;;;;5035110;28;19913;-82
2021/01/24 07:41:47;;;;;;;;;;;2.20;99.90;;;;;;5053275;28;19919;-75
2021/01/24 07:44:13;;;;;;;;;;;2.40;99.90;;;;;;5053185;28;19947;-81
2021/01/24 07:46:39;;;;;;;;;;;2.40;99.90;;;;;;5052749;28;20357;-75
2021/01/24 07:49:05;;;;;;;;;;;2.50;99.90;;;;;;5052067;28;19909;-75
2021/01/24 07:51:30;;;;;;;;;;;2.50;99.90;;;;;;5052951;28;19904;-82
2021/01/24 07:53:56;;;;;;;;;;;2.40;99.90;;;;;;5052833;28;19904;-75
2021/01/24 07:56:22;;;;;;;;;;;2.40;99.90;;;;;;5052196;28;19922;-82
2021/01/24 07:58:48;;;;;;;;;;;2.40;99.90;;;;;;5052331;28;19904;-75
2021/01/24 08:01:14;;;;;;;;;;;2.50;99.90;;;;;;5051957;28;20378;-81
2021/01/24 08:03:41;;;;;;;;;;;2.70;99.90;;;;;;5052949;28;19905;-82
2021/01/24 08:06:07;;;;;;;;;;;2.90;99.90;;;;;;5052762;28;20359;-75
2021/01/24 08:08:36;;;;;;;;;;;3.00;99.90;;;;;;5052853;28;19950;-75
2021/01/24 08:11:02;;;;;;;;;;;3.10;99.90;;;;;;5052816;28;19962;-80
2021/01/24 08:13:28;;;;;;;;;;;3.10;99.90;;;;;;5050866;28;19909;-81
2021/01/24 08:15:54;;;;;;;;;;;3.10;99.90;;;;;;5052119;28;20680;-78
2021/01/24 08:18:20;;;;;;;;;;;3.20;99.90;;;;;;5052088;28;19921;-74
2021/01/24 08:20:46;;;;;;;;;;;3.20;99.90;;;;;;5051485;28;19950;-83
2021/01/24 08:23:12;;;;;;;;;;;3.20;99.90;;;;;;5052706;28;19909;-82
2021/01/24 08:25:39;;;;;;;;;;;3.30;99.90;;;;;;5052768;28;19943;-84
2021/01/24 08:28:04;;;;;;;;;;;3.40;99.90;;;;;;5052661;28;19912;-85
2021/01/24 08:30:37;;;;;;;;;;;3.60;99.90;;;;;;5052650;28;19905;-76
2021/01/24 08:33:03;;;;;;;;;;;3.80;99.90;;;;;;5052824;28;19916;-76
2021/01/24 08:35:31;;;;;;;;;;;4.00;99.90;;;;;;5053601;28;19904;-76
2021/01/24 08:37:56;;;;;;;;;;;4.10;99.90;;;;;;5055824;28;19909;-87
2021/01/24 08:40:29;;;;;;;;;;;4.10;99.90;;;;;;5040388;28;20004;-75
2021/01/24 08:42:55;;;;;;;;;;;4.20;99.90;;;;;;5042227;28;19908;-90
2021/01/24 08:45:21;;;;;;;;;;;4.30;99.90;;;;;;5038827;28;20011;-76
2021/01/24 08:47:50;;;;;;;;;;;4.60;99.90;;;;;;5056352;28;19905;-89
2021/01/24 08:50:16;;;;;;;;;;;4.70;99.90;;;;;;5053814;28;19931;-86
2021/01/24 08:52:41;;;;;;;;;;;4.70;99.90;;;;;;5056274;28;19974;-76
2021/01/24 08:55:07;;;;;;;;;;;4.70;99.90;;;;;;5056043;28;20283;-85
2021/01/24 08:57:33;;;;;;;;;;;4.80;99.90;;;;;;5054442;28;19905;-84
2021/01/24 08:59:59;;;;;;;;;;;4.90;99.90;;;;;;5056121;28;20320;-75
2021/01/24 09:02:35;;;;;;;;;;;4.90;99.90;;;;;;5055639;28;19995;-75
2021/01/24 09:05:03;;;;;;;;;;;5.00;99.90;;;;;;5055867;28;19940;-81
2021/01/24 09:07:45;;;;;;;;;;;5.20;99.90;;;;;;5055265;28;19905;-81
2021/01/24 09:10:13;;;;;;;;;;;5.60;99.90;;;;;;5055931;28;20291;-80
2021/01/24 09:12:39;;;;;;;;;;;5.80;99.90;;;;;;5063598;28;19904;-75
2021/01/24 09:15:05;;;;;;;;;;;6.10;99.90;;;;;;5056826;28;19954;-75
2021/01/24 09:17:30;;;;;;;;;;;6.30;99.90;;;;;;5055145;28;20001;-81
2021/01/24 09:19:56;;;;;;;;;;;6.60;99.90;;;;;;5055980;28;19951;-81
2021/01/24 09:22:21;;;;;;;;;;;7.00;99.90;;;;;;5055024;28;19968;-74
2021/01/24 09:24:47;;;;;;;;;;;7.30;99.90;;;;;;5055589;28;19904;-75
2021/01/24 09:27:12;;;;;;;;;;;7.40;99.90;;;;;;5055631;28;19905;-84
2021/01/24 09:29:39;;;;;;;;;;;7.40;99.90;;;;;;5055732;28;20283;-74
2021/01/24 09:32:05;;;;;;;;;;;7.40;99.90;;;;;;5055240;28;19911;-85
2021/01/24 09:34:31;;;;;;;;;;;7.40;99.90;;;;;;5037803;28;20279;-84
2021/01/24 09:36:57;;;;;;;;;;;7.30;99.90;;;;;;5055348;28;19905;-74
2021/01/24 09:39:22;;;;;;;;;;;7.30;99.90;;;;;;5055395;28;20371;-74
2021/01/24 09:41:48;;;;;;;;;;;7.30;99.90;;;;;;5055470;28;19958;-82
2021/01/24 09:44:14;;;;;;;;;;;7.20;99.90;;;;;;5055832;28;19911;-85
2021/01/24 09:46:39;;;;;;;;;;;7.20;99.90;;;;;;5054997;28;20445;-75
2021/01/24 09:49:05;;;;;;;;;;;7.30;99.90;;;;;;5053814;28;19930;-75
2021/01/24 09:51:31;;;;;;;;;;;7.30;99.90;;;;;;5055044;28;19935;-82
2021/01/24 09:53:56;;;;;;;;;;;7.30;99.90;;;;;;5054959;28;19928;-74
2021/01/24 09:56:22;;;;;;;;;;;7.30;99.90;;;;;;5055067;28;19912;-74
2021/01/24 09:58:48;;;;;;;;;;;7.30;99.90;;;;;;5053741;28;19926;-83
2021/01/24 10:01:13;;;;;;;;;;;7.40;99.90;;;;;;5054916;28;19909;-82
2021/01/24 10:03:39;;;;;;;;;;;7.40;99.90;;;;;;5054971;28;19909;-74
2021/01/24 10:06:05;;;;;;;;;;;7.50;99.90;;;;;;5054994;28;19909;-82
2021/01/24 10:08:31;;;;;;;;;;;7.60;99.90;;;;;;5053843;28;19904;-74
2021/01/24 10:10:56;;;;;;;;;;;7.70;99.90;;;;;;5054920;28;19908;-82
2021/01/24 10:13:22;;;;;;;;;;;8.00;99.90;;;;;;5054285;28;19916;-84
2021/01/24 10:15:51;;;;;;;;;;;8.40;99.90;;;;;;5054565;28;20039;-74
2021/01/24 10:18:17;;;;;;;;;;;8.70;99.90;;;;;;5054385;28;20420;-84
2021/01/24 10:20:43;;;;;;;;;;;8.70;99.90;;;;;;5035801;28;19915;-84
2021/01/24 10:23:08;;;;;;;;;;;8.80;99.90;;;;;;5054705;28;19904;-84
2021/01/24 10:25:35;;;;;;;;;;;8.70;99.90;;;;;;5054517;28;19904;-74
2021/01/24 10:28:00;;;;;;;;;;;8.60;99.90;;;;;;5054612;28;19911;-85
2021/01/24 10:30:26;;;;;;;;;;;8.60;99.90;;;;;;5054297;28;19992;-84
2021/01/24 10:32:51;;;;;;;;;;;8.60;99.90;;;;;;5054443;28;19967;-75
2021/01/24 10:35:17;;;;;;;;;;;8.70;99.90;;;;;;5054392;28;20444;-74
2021/01/24 10:37:42;;;;;;;;;;;8.60;99.90;;;;;;5053907;28;19999;-86
2021/01/24 10:40:08;;;;;;;;;;;8.70;99.90;;;;;;5053801;28;19999;-74
2021/01/24 10:42:36;;;;;;;;;;;8.60;99.90;;;;;;5053864;28;20330;-86
2021/01/24 10:45:02;;;;;;;;;;;8.80;99.90;;;;;;5036167;28;19970;-74
2021/01/24 10:47:27;;;;;;;;;;;8.80;99.90;;;;;;5036304;28;19904;-86
2021/01/24 10:49:53;;;;;;;;;;;8.80;99.90;;;;;;5051259;28;19905;-75
2021/01/24 10:52:18;;;;;;;;;;;8.80;99.90;;;;;;5053731;28;19911;-87
2021/01/24 10:54:44;;;;;;;;;;;8.80;99.90;;;;;;5051426;28;19916;-75
2021/01/24 10:57:09;;;;;;;;;;;9.40;99.90;;;;;;5036123;28;20299;-87
2021/01/24 10:59:35;;;;;;;;;;;10.00;99.90;;;;;;5051865;28;20299;-75
2021/01/24 11:02:00;;;;;;;;;;;9.70;99.90;;;;;;5053666;28;20322;-85
2021/01/24 11:04:26;;;;;;;;;;;8.70;99.90;;;;;;5053322;28;19979;-85
2021/01/24 11:06:51;;;;;;;;;;;7.80;99.90;;;;;;5069051;28;20375;-85
2021/01/24 11:09:17;;;;;;;;;;;7.40;99.90;;;;;;5053550;28;19999;-74
2021/01/24 11:11:42;;;;;;;;;;;7.10;99.90;;;;;;5052907;28;19905;-83
2021/01/24 11:14:08;;;;;;;;;;;7.30;99.90;;;;;;5041110;28;19909;-85
2021/01/24 11:16:33;;;;;;;;;;;7.50;99.90;;;;;;5033244;28;19955;-83
2021/01/24 11:18:59;;;;;;;;;;;7.70;99.90;;;;;;5035311;28;19924;-74
2021/01/24 11:21:25;;;;;;;;;;;7.80;99.90;;;;;;5052896;28;19909;-86
2021/01/24 11:23:50;;;;;;;;;;;7.90;99.90;;;;;;5035638;28;19912;-74
2021/01/24 11:26:16;;;;;;;;;;;8.00;99.90;;;;;;5035602;28;19972;-87
2021/01/24 11:28:41;;;;;;;;;;;8.10;99.90;;;;;;5053575;28;19947;-87
2021/01/24 11:31:07;;;;;;;;;;;8.10;99.90;;;;;;5052455;28;20407;-88
2021/01/24 11:33:32;;;;;;;;;;;7.90;99.90;;;;;;5053140;28;20291;-87
2021/01/24 11:35:58;;;;;;;;;;;8.10;99.90;;;;;;5053293;28;20378;-86
2021/01/24 11:38:23;;;;;;;;;;;8.40;99.90;;;;;;5053479;28;19915;-86
2021/01/24 11:40:49;;;;;;;;;;;8.80;99.90;;;;;;5053140;28;19909;-86
2021/01/24 11:43:14;;;;;;;;;;;9.20;99.90;;;;;;5035493;28;19905;-85
2021/01/24 11:45:40;;;;;;;;;;;9.20;99.90;;;;;;5053062;28;19920;-85
2021/01/24 11:48:06;;;;;;;;;;;9.00;99.90;;;;;;5053102;28;19904;-85
2021/01/24 11:50:31;;;;;;;;;;;8.70;99.90;;;;;;5051793;28;19909;-85
2021/01/24 11:52:57;;;;;;;;;;;8.50;99.90;;;;;;5053153;28;19948;-76
2021/01/24 11:55:22;;;;;;;;;;;8.40;99.90;;;;;;5055412;28;20319;-84
2021/01/24 11:57:48;;;;;;;;;;;8.30;99.90;;;;;;5053095;28;19991;-76
2021/01/24 12:00:14;;;;;;;;;;;8.60;99.90;;;;;;5051401;28;19904;-85
2021/01/24 12:02:39;;;;;;;;;;;9.10;99.90;;;;;;5052811;28;19955;-77
2021/01/24 12:05:05;;;;;;;;;;;9.60;99.90;;;;;;5052668;28;20003;-83
2021/01/24 12:07:30;;;;;;;;;;;9.80;99.90;;;;;;5052962;28;19905;-76
2021/01/24 12:09:56;;;;;;;;;;;9.80;99.90;;;;;;5052660;28;19904;-76
2021/01/24 12:12:21;;;;;;;;;;;10.10;99.90;;;;;;5056482;28;19908;-76
2021/01/24 12:14:47;;;;;;;;;;;10.40;99.90;;;;;;5040445;28;19909;-76
2021/01/24 12:17:13;;;;;;;;;;;10.40;99.90;;;;;;5036760;28;20375;-78
2021/01/24 12:19:38;;;;;;;;;;;10.40;99.90;;;;;;5043975;28;19920;-80
2021/01/24 12:22:04;;;;;;;;;;;9.80;99.90;;;;;;5056626;28;19955;-80
2021/01/24 12:24:29;;;;;;;;;;;9.50;99.90;;;;;;5057147;28;19905;-75
2021/01/24 12:26:55;;;;;;;;;;;9.50;99.90;;;;;;5056877;28;20367;-79
2021/01/24 12:29:21;;;;;;;;;;;9.70;99.90;;;;;;5056675;28;20385;-80
2021/01/24 12:31:46;;;;;;;;;;;9.90;99.90;;;;;;5038499;28;19905;-80
2021/01/24 12:34:12;;;;;;;;;;;10.00;99.90;;;;;;5056682;28;19913;-79
2021/01/24 12:36:37;;;;;;;;;;;9.60;99.90;;;;;;5056362;28;19944;-74
2021/01/24 12:39:03;;;;;;;;;;;9.20;99.90;;;;;;5056496;28;19909;-73
2021/01/24 12:41:29;;;;;;;;;;;8.60;99.90;;;;;;5056328;28;19967;-81
2021/01/24 12:43:54;;;;;;;;;;;8.00;99.90;;;;;;5056531;28;19905;-81
2021/01/24 12:46:20;;;;;;;;;;;7.70;99.90;;;;;;5056230;28;19908;-73
2021/01/24 12:48:45;;;;;;;;;;;7.70;99.90;;;;;;5056033;28;19948;-80
2021/01/24 12:51:11;;;;;;;;;;;8.10;99.90;;;;;;5054986;28;19904;-74
2021/01/24 12:53:36;;;;;;;;;;;8.30;99.90;;;;;;5038564;28;19951;-81
2021/01/24 12:56:02;;;;;;;;;;;8.30;99.90;;;;;;5038055;28;20414;-81
2021/01/24 12:58:29;;;;;;;;;;;8.40;99.90;;;;;;5054640;28;20016;-81
2021/01/24 13:00:54;;;;;;;;;;;8.50;99.90;;;;;;5054761;28;19904;-82
2021/01/24 13:03:20;;;;;;;;;;;8.40;99.90;;;;;;5055865;28;19909;-81
2021/01/24 13:05:46;;;;;;;;;;;8.20;99.90;;;;;;5056021;28;19912;-73
2021/01/24 13:08:11;;;;;;;;;;;8.00;99.90;;;;;;5056128;28;20007;-74
2021/01/24 13:10:37;;;;;;;;;;;7.90;99.90;;;;;;5055946;28;19905;-74
2021/01/24 13:13:02;;;;;;;;;;;7.70;99.90;;;;;;5055046;28;20375;-80
2021/01/24 13:15:28;;;;;;;;;;;7.60;99.90;;;;;;5055560;28;19904;-75
2021/01/24 13:17:53;;;;;;;;;;;7.40;99.90;;;;;;5054742;28;19923;-74
2021/01/24 13:20:19;;;;;;;;;;;7.50;99.90;;;;;;5055835;28;19912;-75
2021/01/24 13:22:44;;;;;;;;;;;7.80;99.90;;;;;;5054218;28;19912;-75
2021/01/24 13:25:10;;;;;;;;;;;8.30;99.90;;;;;;5055791;28;19911;-76
2021/01/24 13:27:35;;;;;;;;;;;8.20;99.90;;;;;;5037620;28;19916;-82
2021/01/24 13:30:01;;;;;;;;;;;8.30;99.90;;;;;;5055654;28;20026;-75
2021/01/24 13:32:27;;;;;;;;;;;8.30;99.90;;;;;;5055367;28;19908;-75
2021/01/24 13:34:52;;;;;;;;;;;8.50;99.90;;;;;;5055455;28;19905;-81
2021/01/24 13:37:18;;;;;;;;;;;8.40;99.90;;;;;;5055444;28;19905;-81
2021/01/24 13:39:43;;;;;;;;;;;8.30;99.90;;;;;;5055363;28;19916;-80
2021/01/24 13:42:09;;;;;;;;;;;8.30;99.90;;;;;;5037463;28;19909;-74
2021/01/24 13:44:34;;;;;;;;;;;8.30;99.90;;;;;;5055383;28;19905;-79
2021/01/24 13:47:01;;;;;;;;;;;8.10;99.90;;;;;;5055039;28;19904;-83
2021/01/24 13:49:26;;;;;;;;;;;8.00;99.90;;;;;;5054335;28;19959;-75
2021/01/24 13:51:52;;;;;;;;;;;8.20;99.90;;;;;;5055191;28;19908;-83
2021/01/24 13:54:18;;;;;;;;;;;8.40;99.90;;;;;;5054387;28;19932;-75
2021/01/24 13:56:43;;;;;;;;;;;9.00;99.90;;;;;;5054894;28;19912;-76
2021/01/24 13:59:09;;;;;;;;;;;8.90;99.90;;;;;;5055114;28;19931;-81
2021/01/24 14:01:34;;;;;;;;;;;8.60;99.90;;;;;;5053035;28;19912;-80
2021/01/24 14:04:00;;;;;;;;;;;8.40;99.90;;;;;;5054817;28;20379;-80
2021/01/24 14:06:25;;;;;;;;;;;8.10;99.90;;;;;;5055102;28;20326;-79
2021/01/24 14:08:51;;;;;;;;;;;8.60;99.90;;;;;;5054882;28;19912;-80
2021/01/24 14:11:17;;;;;;;;;;;9.00;99.90;;;;;;5054803;28;19909;-74
2021/01/24 14:13:43;;;;;;;;;;;9.10;99.90;;;;;;5052784;28;20442;-74
2021/01/24 14:16:08;;;;;;;;;;;9.40;99.90;;;;;;5054394;28;19951;-80
2021/01/24 14:18:34;;;;;;;;;;;9.60;99.90;;;;;;5054323;28;20295;-74
2021/01/24 14:20:59;;;;;;;;;;;9.40;99.90;;;;;;5054520;28;19958;-73
2021/01/24 14:23:25;;;;;;;;;;;9.10;99.90;;;;;;5036494;28;19905;-73